sim
Sign-in with your pilot id or email,
or register
Callsign
Passwort

Schedule Details

Flight Number: OEO2585
Departure: Malaga Costa Del Sol Airport (LEMG) at 08:10
Arrival: Munich Airport (EDDM) at 11:00

Weather Information
Getting current METAR information for LEMG 210600Z 28010KT CAVOK 23/15 Q1016 NOSIG
Getting current METAR information for EDDM 210550Z VRB01KT 9999 1500SE BCFG NSC 07/07 Q1017 NOSIG

Schedule Frequency

Route Map